sensor_id;sensor_type;location;lat;lon;timestamp;pressure;altitude;pressure_sealevel;temperature;humidity
9129;BME280;4599;50.906;6.786;2023-08-08T00:00:45;100243.44;;;12.77;81.48
9129;BME280;4599;50.906;6.786;2023-08-08T00:05:08;100241.22;;;12.73;81.64
9129;BME280;4599;50.906;6.786;2023-08-08T00:09:30;100247.88;;;12.75;81.60
9129;BME280;4599;50.906;6.786;2023-08-08T00:13:53;100237.22;;;12.59;82.58
9129;BME280;4599;50.906;6.786;2023-08-08T00:18:15;100231.88;;;12.51;83.24
9129;BME280;4599;50.906;6.786;2023-08-08T00:22:37;100232.53;;;12.64;82.98
9129;BME280;4599;50.906;6.786;2023-08-08T00:26:59;100227.88;;;12.58;82.44
9129;BME280;4599;50.906;6.786;2023-08-08T00:31:22;100223.34;;;12.51;83.47
9129;BME280;4599;50.906;6.786;2023-08-08T00:35:44;100217.84;;;12.34;82.69
9129;BME280;4599;50.906;6.786;2023-08-08T00:40:07;100220.09;;;12.28;82.94
9129;BME280;4599;50.906;6.786;2023-08-08T00:44:30;100219.03;;;12.30;82.72
9129;BME280;4599;50.906;6.786;2023-08-08T00:48:53;100210.63;;;12.28;81.40
9129;BME280;4599;50.906;6.786;2023-08-08T00:53:18;100198.16;;;12.24;82.30
9129;BME280;4599;50.906;6.786;2023-08-08T00:57:40;100202.84;;;12.19;83.29
9129;BME280;4599;50.906;6.786;2023-08-08T01:02:03;100202.09;;;12.07;83.36
9129;BME280;4599;50.906;6.786;2023-08-08T01:06:29;100205.69;;;12.05;82.54
9129;BME280;4599;50.906;6.786;2023-08-08T01:10:53;100209.84;;;11.85;83.86
9129;BME280;4599;50.906;6.786;2023-08-08T01:15:15;100205.53;;;11.85;83.48
9129;BME280;4599;50.906;6.786;2023-08-08T01:19:39;100208.94;;;11.64;83.11
9129;BME280;4599;50.906;6.786;2023-08-08T01:24:12;100211.75;;;11.61;83.93
9129;BME280;4599;50.906;6.786;2023-08-08T01:28:34;100188.69;;;11.27;83.99
9129;BME280;4599;50.906;6.786;2023-08-08T01:32:56;100206.31;;;11.32;84.52
9129;BME280;4599;50.906;6.786;2023-08-08T01:37:20;100210.63;;;11.20;85.38
9129;BME280;4599;50.906;6.786;2023-08-08T01:41:46;100205.63;;;11.30;85.24
9129;BME280;4599;50.906;6.786;2023-08-08T01:46:10;100198.59;;;11.21;84.69
9129;BME280;4599;50.906;6.786;2023-08-08T01:50:32;100203.75;;;11.10;84.50
9129;BME280;4599;50.906;6.786;2023-08-08T01:54:54;100194.88;;;11.14;84.37
9129;BME280;4599;50.906;6.786;2023-08-08T01:59:19;100205.50;;;10.98;85.78
9129;BME280;4599;50.906;6.786;2023-08-08T02:03:40;100197.44;;;11.03;84.79
9129;BME280;4599;50.906;6.786;2023-08-08T02:08:03;100191.63;;;10.89;84.97
9129;BME280;4599;50.906;6.786;2023-08-08T02:12:25;100189.97;;;10.88;84.82
9129;BME280;4599;50.906;6.786;2023-08-08T02:16:49;100195.81;;;10.90;84.55
9129;BME280;4599;50.906;6.786;2023-08-08T02:21:10;100189.03;;;10.78;84.83
9129;BME280;4599;50.906;6.786;2023-08-08T02:25:32;100180.28;;;10.81;85.49
9129;BME280;4599;50.906;6.786;2023-08-08T02:29:55;100172.16;;;10.87;84.85
9129;BME280;4599;50.906;6.786;2023-08-08T02:34:18;100169.25;;;10.80;85.92
9129;BME280;4599;50.906;6.786;2023-08-08T02:38:40;100160.16;;;10.76;85.54
9129;BME280;4599;50.906;6.786;2023-08-08T02:43:02;100152.91;;;10.70;85.57
9129;BME280;4599;50.906;6.786;2023-08-08T02:47:25;100154.53;;;10.60;85.85
9129;BME280;4599;50.906;6.786;2023-08-08T02:51:48;100148.00;;;10.67;86.33
9129;BME280;4599;50.906;6.786;2023-08-08T02:56:10;100138.00;;;10.64;85.88
9129;BME280;4599;50.906;6.786;2023-08-08T03:00:31;100150.22;;;10.61;86.03
9129;BME280;4599;50.906;6.786;2023-08-08T03:04:53;100144.63;;;10.67;86.47
9129;BME280;4599;50.906;6.786;2023-08-08T03:09:17;100149.78;;;10.56;86.79
9129;BME280;4599;50.906;6.786;2023-08-08T03:13:39;100147.66;;;10.61;86.22
9129;BME280;4599;50.906;6.786;2023-08-08T03:18:01;100140.44;;;10.55;86.66
9129;BME280;4599;50.906;6.786;2023-08-08T03:22:23;100127.28;;;10.48;86.76
9129;BME280;4599;50.906;6.786;2023-08-08T03:26:47;100136.47;;;10.51;87.29
9129;BME280;4599;50.906;6.786;2023-08-08T03:31:09;100128.47;;;10.66;86.47
9129;BME280;4599;50.906;6.786;2023-08-08T03:35:31;100125.66;;;10.58;86.63
9129;BME280;4599;50.906;6.786;2023-08-08T03:39:53;100117.25;;;10.56;86.47
9129;BME280;4599;50.906;6.786;2023-08-08T03:44:16;100130.66;;;10.60;87.03
9129;BME280;4599;50.906;6.786;2023-08-08T03:48:38;100123.69;;;10.84;86.70
9129;BME280;4599;50.906;6.786;2023-08-08T03:53:02;100125.66;;;10.91;87.92
9129;BME280;4599;50.906;6.786;2023-08-08T03:57:24;100119.84;;;11.01;87.50
9129;BME280;4599;50.906;6.786;2023-08-08T04:01:47;100118.41;;;11.19;87.41
9129;BME280;4599;50.906;6.786;2023-08-08T04:06:09;100118.50;;;11.28;86.70
9129;BME280;4599;50.906;6.786;2023-08-08T04:10:33;100114.84;;;11.42;86.51
9129;BME280;4599;50.906;6.786;2023-08-08T04:14:58;100104.00;;;11.38;86.57
9129;BME280;4599;50.906;6.786;2023-08-08T04:19:22;100111.91;;;11.58;86.20
9129;BME280;4599;50.906;6.786;2023-08-08T04:23:46;100109.59;;;11.55;85.97
9129;BME280;4599;50.906;6.786;2023-08-08T04:28:08;100118.44;;;11.62;86.24
9129;BME280;4599;50.906;6.786;2023-08-08T04:32:30;100127.88;;;11.72;87.23
9129;BME280;4599;50.906;6.786;2023-08-08T04:36:54;100110.84;;;11.71;87.35
9129;BME280;4599;50.906;6.786;2023-08-08T04:41:16;100113.09;;;11.85;86.59
9129;BME280;4599;50.906;6.786;2023-08-08T04:45:38;100125.06;;;11.96;86.35
9129;BME280;4599;50.906;6.786;2023-08-08T04:50:00;100115.44;;;12.09;86.16
9129;BME280;4599;50.906;6.786;2023-08-08T04:54:24;100120.41;;;12.22;85.89
9129;BME280;4599;50.906;6.786;2023-08-08T04:58:46;100120.38;;;12.42;85.45
9129;BME280;4599;50.906;6.786;2023-08-08T05:03:07;100113.94;;;12.58;85.38
9129;BME280;4599;50.906;6.786;2023-08-08T05:07:30;100109.69;;;12.68;85.39
9129;BME280;4599;50.906;6.786;2023-08-08T05:11:53;100121.13;;;12.84;85.00
9129;BME280;4599;50.906;6.786;2023-08-08T05:16:16;100112.94;;;13.00;83.80
9129;BME280;4599;50.906;6.786;2023-08-08T05:20:38;100104.69;;;13.06;84.98
9129;BME280;4599;50.906;6.786;2023-08-08T05:25:00;100109.47;;;13.20;83.73
9129;BME280;4599;50.906;6.786;2023-08-08T05:29:24;100105.97;;;13.31;83.27
9129;BME280;4599;50.906;6.786;2023-08-08T05:33:48;100101.00;;;13.49;83.32
9129;BME280;4599;50.906;6.786;2023-08-08T05:38:10;100103.44;;;13.60;81.42
9129;BME280;4599;50.906;6.786;2023-08-08T05:42:32;100101.25;;;13.65;82.48
9129;BME280;4599;50.906;6.786;2023-08-08T05:46:57;100099.91;;;13.99;80.73
9129;BME280;4599;50.906;6.786;2023-08-08T05:51:19;100097.66;;;14.79;78.58
9129;BME280;4599;50.906;6.786;2023-08-08T05:55:42;100103.75;;;15.06;76.41
9129;BME280;4599;50.906;6.786;2023-08-08T06:00:06;100100.19;;;15.34;74.82
9129;BME280;4599;50.906;6.786;2023-08-08T06:04:30;100103.50;;;16.40;72.07
9129;BME280;4599;50.906;6.786;2023-08-08T06:08:56;100109.56;;;16.83;70.04
9129;BME280;4599;50.906;6.786;2023-08-08T06:13:19;100105.94;;;17.76;65.10
9129;BME280;4599;50.906;6.786;2023-08-08T06:17:42;100117.72;;;16.96;67.24
9129;BME280;4599;50.906;6.786;2023-08-08T06:22:05;100122.19;;;16.09;70.72
9129;BME280;4599;50.906;6.786;2023-08-08T06:26:28;100133.47;;;15.82;71.92
9129;BME280;4599;50.906;6.786;2023-08-08T06:30:50;100128.69;;;15.52;72.22
9129;BME280;4599;50.906;6.786;2023-08-08T06:35:12;100132.81;;;15.80;71.40
9129;BME280;4599;50.906;6.786;2023-08-08T06:39:37;100129.34;;;15.71;70.50
9129;BME280;4599;50.906;6.786;2023-08-08T06:43:59;100138.34;;;16.80;68.88
9129;BME280;4599;50.906;6.786;2023-08-08T06:48:21;100122.75;;;18.28;62.38
9129;BME280;4599;50.906;6.786;2023-08-08T06:52:44;100122.50;;;19.94;57.09
9129;BME280;4599;50.906;6.786;2023-08-08T06:57:08;100125.00;;;19.87;56.88
9129;BME280;4599;50.906;6.786;2023-08-08T07:01:30;100124.34;;;20.22;54.45
9129;BME280;4599;50.906;6.786;2023-08-08T07:06:02;100134.78;;;20.37;54.32
9129;BME280;4599;50.906;6.786;2023-08-08T07:10:24;100131.72;;;19.73;56.25
9129;BME280;4599;50.906;6.786;2023-08-08T07:14:48;100117.84;;;18.58;59.59
9129;BME280;4599;50.906;6.786;2023-08-08T07:19:11;100111.09;;;17.68;63.06
9129;BME280;4599;50.906;6.786;2023-08-08T07:23:34;100134.16;;;17.29;65.63
9129;BME280;4599;50.906;6.786;2023-08-08T07:28:00;100125.41;;;17.14;65.87
9129;BME280;4599;50.906;6.786;2023-08-08T07:32:23;100130.47;;;17.31;66.16
9129;BME280;4599;50.906;6.786;2023-08-08T07:36:45;100114.03;;;17.97;63.78
9129;BME280;4599;50.906;6.786;2023-08-08T07:41:14;100117.25;;;18.23;63.27
9129;BME280;4599;50.906;6.786;2023-08-08T07:45:37;100114.91;;;18.61;61.85
9129;BME280;4599;50.906;6.786;2023-08-08T07:50:00;100114.75;;;19.32;59.13
9129;BME280;4599;50.906;6.786;2023-08-08T07:54:22;100115.16;;;18.27;61.53
9129;BME280;4599;50.906;6.786;2023-08-08T07:58:45;100117.13;;;17.84;63.32
9129;BME280;4599;50.906;6.786;2023-08-08T08:03:07;100111.06;;;18.96;59.49
9129;BME280;4599;50.906;6.786;2023-08-08T08:07:30;100123.06;;;20.56;55.33
9129;BME280;4599;50.906;6.786;2023-08-08T08:11:52;100117.31;;;20.46;56.00
9129;BME280;4599;50.906;6.786;2023-08-08T08:16:14;100113.97;;;20.66;53.79
9129;BME280;4599;50.906;6.786;2023-08-08T08:20:36;100113.59;;;20.25;54.81
9129;BME280;4599;50.906;6.786;2023-08-08T08:24:59;100110.41;;;21.32;51.46
9129;BME280;4599;50.906;6.786;2023-08-08T08:29:21;100107.59;;;21.34;52.20
9129;BME280;4599;50.906;6.786;2023-08-08T08:33:44;100110.16;;;21.70;51.53
9129;BME280;4599;50.906;6.786;2023-08-08T08:38:06;100102.03;;;22.07;50.77
9129;BME280;4599;50.906;6.786;2023-08-08T08:42:32;100111.28;;;21.82;50.85
9129;BME280;4599;50.906;6.786;2023-08-08T08:46:57;100117.22;;;20.83;53.18
9129;BME280;4599;50.906;6.786;2023-08-08T08:51:20;100111.00;;;20.55;54.45
9129;BME280;4599;50.906;6.786;2023-08-08T08:55:43;100115.81;;;19.91;54.79
9129;BME280;4599;50.906;6.786;2023-08-08T09:00:08;100116.47;;;20.30;54.56
9129;BME280;4599;50.906;6.786;2023-08-08T09:04:35;100112.25;;;20.44;53.12
9129;BME280;4599;50.906;6.786;2023-08-08T09:08:59;100108.69;;;20.74;53.30
9129;BME280;4599;50.906;6.786;2023-08-08T09:13:39;100119.78;;;21.12;51.82
9129;BME280;4599;50.906;6.786;2023-08-08T09:18:03;100110.41;;;20.67;52.80
9129;BME280;4599;50.906;6.786;2023-08-08T09:22:27;100113.38;;;20.50;52.27
9129;BME280;4599;50.906;6.786;2023-08-08T09:26:49;100105.03;;;20.54;54.60
9129;BME280;4599;50.906;6.786;2023-08-08T09:31:12;100111.00;;;20.69;52.08
9129;BME280;4599;50.906;6.786;2023-08-08T09:35:38;100099.03;;;21.40;51.72
9129;BME280;4599;50.906;6.786;2023-08-08T09:40:02;100116.88;;;22.28;47.68
9129;BME280;4599;50.906;6.786;2023-08-08T09:44:26;100122.94;;;21.08;50.67
9129;BME280;4599;50.906;6.786;2023-08-08T09:48:50;100123.47;;;21.03;51.31
9129;BME280;4599;50.906;6.786;2023-08-08T09:53:13;100131.31;;;20.74;51.29
9129;BME280;4599;50.906;6.786;2023-08-08T09:57:38;100125.25;;;21.03;49.73
9129;BME280;4599;50.906;6.786;2023-08-08T10:02:04;100101.06;;;20.29;51.89
9129;BME280;4599;50.906;6.786;2023-08-08T10:06:27;100106.78;;;21.76;47.29
9129;BME280;4599;50.906;6.786;2023-08-08T10:10:50;100121.03;;;21.16;47.41
9129;BME280;4599;50.906;6.786;2023-08-08T10:15:12;100108.69;;;20.45;50.21
9129;BME280;4599;50.906;6.786;2023-08-08T10:19:34;100110.47;;;20.74;52.37
9129;BME280;4599;50.906;6.786;2023-08-08T10:24:03;100099.25;;;22.09;46.48
9129;BME280;4599;50.906;6.786;2023-08-08T10:28:27;100114.06;;;22.29;46.95
9129;BME280;4599;50.906;6.786;2023-08-08T10:32:50;100103.19;;;21.56;46.79
9129;BME280;4599;50.906;6.786;2023-08-08T10:37:14;100087.09;;;20.95;47.10
9129;BME280;4599;50.906;6.786;2023-08-08T10:41:44;100111.81;;;20.55;49.43
9129;BME280;4599;50.906;6.786;2023-08-08T10:46:08;100120.09;;;20.73;48.45
9129;BME280;4599;50.906;6.786;2023-08-08T10:50:38;100111.28;;;20.30;49.07
9129;BME280;4599;50.906;6.786;2023-08-08T10:55:02;100106.59;;;20.41;50.64
9129;BME280;4599;50.906;6.786;2023-08-08T10:59:25;100106.59;;;20.41;50.39
9129;BME280;4599;50.906;6.786;2023-08-08T11:03:50;100111.84;;;20.03;50.30
9129;BME280;4599;50.906;6.786;2023-08-08T11:08:12;100108.22;;;19.90;50.87
9129;BME280;4599;50.906;6.786;2023-08-08T11:12:34;100111.22;;;19.78;51.87
9129;BME280;4599;50.906;6.786;2023-08-08T11:16:56;100108.81;;;19.54;50.98
9129;BME280;4599;50.906;6.786;2023-08-08T11:21:19;100110.72;;;19.83;53.16
9129;BME280;4599;50.906;6.786;2023-08-08T11:25:44;100109.19;;;19.88;50.84
9129;BME280;4599;50.906;6.786;2023-08-08T11:30:08;100110.75;;;20.79;49.43
9129;BME280;4599;50.906;6.786;2023-08-08T11:34:31;100103.09;;;21.64;46.92
9129;BME280;4599;50.906;6.786;2023-08-08T11:38:56;100102.44;;;21.41;46.00
9129;BME280;4599;50.906;6.786;2023-08-08T11:43:20;100087.91;;;22.23;44.33
9129;BME280;4599;50.906;6.786;2023-08-08T11:47:49;100084.56;;;21.59;46.41
9129;BME280;4599;50.906;6.786;2023-08-08T11:52:12;100092.94;;;20.97;46.81
9129;BME280;4599;50.906;6.786;2023-08-08T11:56:35;100091.28;;;20.46;47.69
9129;BME280;4599;50.906;6.786;2023-08-08T12:01:02;100080.28;;;20.21;48.27
9129;BME280;4599;50.906;6.786;2023-08-08T12:05:36;100082.84;;;20.06;49.29
9129;BME280;4599;50.906;6.786;2023-08-08T12:09:58;100077.84;;;20.19;50.01
9129;BME280;4599;50.906;6.786;2023-08-08T12:14:23;100063.94;;;19.98;49.44
9129;BME280;4599;50.906;6.786;2023-08-08T12:18:45;100076.97;;;19.75;48.84
9129;BME280;4599;50.906;6.786;2023-08-08T12:23:10;100067.50;;;19.97;49.37
9129;BME280;4599;50.906;6.786;2023-08-08T12:27:32;100069.53;;;19.49;50.68
9129;BME280;4599;50.906;6.786;2023-08-08T12:31:57;100076.59;;;20.01;51.24
9129;BME280;4599;50.906;6.786;2023-08-08T12:36:20;100086.06;;;20.46;50.61
9129;BME280;4599;50.906;6.786;2023-08-08T12:40:45;100075.56;;;20.39;48.18
9129;BME280;4599;50.906;6.786;2023-08-08T12:45:08;100085.53;;;20.50;47.18
9129;BME280;4599;50.906;6.786;2023-08-08T12:49:32;100081.09;;;22.56;41.98
9129;BME280;4599;50.906;6.786;2023-08-08T12:53:55;100095.50;;;20.76;46.70
9129;BME280;4599;50.906;6.786;2023-08-08T12:58:17;100071.94;;;20.11;48.18
9129;BME280;4599;50.906;6.786;2023-08-08T13:02:39;100082.56;;;19.10;49.88
9129;BME280;4599;50.906;6.786;2023-08-08T13:07:03;100094.94;;;18.77;51.48
9129;BME280;4599;50.906;6.786;2023-08-08T13:11:25;100100.00;;;18.63;52.84
9129;BME280;4599;50.906;6.786;2023-08-08T13:15:48;100092.09;;;18.56;52.61
9129;BME280;4599;50.906;6.786;2023-08-08T13:20:14;100091.88;;;18.74;52.56
9129;BME280;4599;50.906;6.786;2023-08-08T13:24:38;100087.13;;;18.77;53.41
9129;BME280;4599;50.906;6.786;2023-08-08T13:29:00;100086.19;;;18.70;53.85
9129;BME280;4599;50.906;6.786;2023-08-08T13:33:22;100074.22;;;18.53;53.53
9129;BME280;4599;50.906;6.786;2023-08-08T13:37:46;100085.81;;;19.43;51.47
9129;BME280;4599;50.906;6.786;2023-08-08T13:42:24;100086.97;;;19.10;51.67
9129;BME280;4599;50.906;6.786;2023-08-08T13:47:20;100096.19;;;18.81;52.61
9129;BME280;4599;50.906;6.786;2023-08-08T13:51:42;100097.41;;;18.63;55.18
9129;BME280;4599;50.906;6.786;2023-08-08T13:56:22;100089.44;;;19.03;54.21
9129;BME280;4599;50.906;6.786;2023-08-08T14:00:49;100074.19;;;19.00;54.44
9129;BME280;4599;50.906;6.786;2023-08-08T14:05:11;100083.19;;;18.81;54.29
9129;BME280;4599;50.906;6.786;2023-08-08T14:09:34;100086.47;;;18.75;55.28
9129;BME280;4599;50.906;6.786;2023-08-08T14:13:56;100088.25;;;18.83;53.77
9129;BME280;4599;50.906;6.786;2023-08-08T14:18:19;100084.63;;;18.92;53.45
9129;BME280;4599;50.906;6.786;2023-08-08T14:22:44;100077.84;;;19.14;53.08
9129;BME280;4599;50.906;6.786;2023-08-08T14:27:07;100088.59;;;19.42;52.17
9129;BME280;4599;50.906;6.786;2023-08-08T14:31:30;99978.94;;;19.23;52.20
9129;BME280;4599;50.906;6.786;2023-08-08T14:35:55;100072.06;;;19.80;52.31
9129;BME280;4599;50.906;6.786;2023-08-08T14:40:17;100081.44;;;20.18;51.16
9129;BME280;4599;50.906;6.786;2023-08-08T14:44:39;100085.53;;;20.35;50.97
9129;BME280;4599;50.906;6.786;2023-08-08T14:49:02;100088.88;;;19.69;52.02
9129;BME280;4599;50.906;6.786;2023-08-08T14:53:25;100093.19;;;19.77;52.27
9129;BME280;4599;50.906;6.786;2023-08-08T14:57:48;100088.94;;;20.36;51.34
9129;BME280;4599;50.906;6.786;2023-08-08T15:02:10;100102.66;;;19.93;51.94
9129;BME280;4599;50.906;6.786;2023-08-08T15:06:35;100106.50;;;19.59;52.87
9129;BME280;4599;50.906;6.786;2023-08-08T15:10:59;100102.72;;;19.39;52.69
9129;BME280;4599;50.906;6.786;2023-08-08T15:15:21;100100.03;;;19.55;53.19
9129;BME280;4599;50.906;6.786;2023-08-08T15:19:43;100097.66;;;19.68;53.38
9129;BME280;4599;50.906;6.786;2023-08-08T15:24:06;100092.25;;;19.55;52.50
9129;BME280;4599;50.906;6.786;2023-08-08T15:28:29;100088.34;;;19.20;53.35
9129;BME280;4599;50.906;6.786;2023-08-08T15:32:51;100077.09;;;19.28;53.56
9129;BME280;4599;50.906;6.786;2023-08-08T15:37:13;100073.59;;;19.52;51.81
9129;BME280;4599;50.906;6.786;2023-08-08T15:41:35;100056.47;;;19.57;52.48
9129;BME280;4599;50.906;6.786;2023-08-08T15:45:59;100072.59;;;19.75;54.31
9129;BME280;4599;50.906;6.786;2023-08-08T15:50:23;100076.91;;;19.83;55.62
9129;BME280;4599;50.906;6.786;2023-08-08T15:54:45;100082.69;;;19.70;57.68
9129;BME280;4599;50.906;6.786;2023-08-08T15:59:07;100078.69;;;19.37;57.62
9129;BME280;4599;50.906;6.786;2023-08-08T16:03:30;100082.22;;;19.13;58.56
9129;BME280;4599;50.906;6.786;2023-08-08T16:07:52;100069.31;;;19.05;57.74
9129;BME280;4599;50.906;6.786;2023-08-08T16:12:14;100071.38;;;19.10;57.59
9129;BME280;4599;50.906;6.786;2023-08-08T16:16:37;100096.59;;;19.01;58.89
9129;BME280;4599;50.906;6.786;2023-08-08T16:21:00;100080.88;;;18.95;57.06
9129;BME280;4599;50.906;6.786;2023-08-08T16:25:22;100085.59;;;19.22;57.73
9129;BME280;4599;50.906;6.786;2023-08-08T16:29:44;100086.41;;;19.22;57.68
9129;BME280;4599;50.906;6.786;2023-08-08T16:34:08;100091.09;;;19.27;56.99
9129;BME280;4599;50.906;6.786;2023-08-08T16:38:31;100070.78;;;19.00;58.40
9129;BME280;4599;50.906;6.786;2023-08-08T16:42:53;100087.97;;;19.09;57.35
9129;BME280;4599;50.906;6.786;2023-08-08T16:47:16;100087.28;;;18.84;58.40
9129;BME280;4599;50.906;6.786;2023-08-08T16:51:38;100098.34;;;18.70;58.75
9129;BME280;4599;50.906;6.786;2023-08-08T16:56:01;100098.91;;;18.33;62.51
9129;BME280;4599;50.906;6.786;2023-08-08T17:00:23;100102.31;;;18.42;62.94
9129;BME280;4599;50.906;6.786;2023-08-08T17:04:48;100090.63;;;18.54;62.19
9129;BME280;4599;50.906;6.786;2023-08-08T17:09:13;100096.94;;;18.59;62.05
9129;BME280;4599;50.906;6.786;2023-08-08T17:13:37;100097.41;;;18.63;60.09
9129;BME280;4599;50.906;6.786;2023-08-08T17:17:59;100095.00;;;18.53;60.01
9129;BME280;4599;50.906;6.786;2023-08-08T17:22:21;100077.47;;;18.47;60.07
9129;BME280;4599;50.906;6.786;2023-08-08T17:26:44;100067.91;;;18.48;59.27
9129;BME280;4599;50.906;6.786;2023-08-08T17:31:07;100068.66;;;18.72;59.88
9129;BME280;4599;50.906;6.786;2023-08-08T17:35:29;100073.81;;;18.80;60.28
9129;BME280;4599;50.906;6.786;2023-08-08T17:39:51;100075.81;;;18.70;59.23
9129;BME280;4599;50.906;6.786;2023-08-08T17:44:15;100056.25;;;18.52;60.63
9129;BME280;4599;50.906;6.786;2023-08-08T17:48:43;100063.22;;;18.43;59.07
9129;BME280;4599;50.906;6.786;2023-08-08T17:53:05;100058.69;;;18.37;59.27
9129;BME280;4599;50.906;6.786;2023-08-08T17:57:27;100048.50;;;18.27;59.63
9129;BME280;4599;50.906;6.786;2023-08-08T18:01:50;100046.91;;;18.18;60.32
9129;BME280;4599;50.906;6.786;2023-08-08T18:06:13;100053.72;;;18.03;58.78
9129;BME280;4599;50.906;6.786;2023-08-08T18:10:36;100051.03;;;17.88;60.78
9129;BME280;4599;50.906;6.786;2023-08-08T18:14:59;100059.56;;;17.97;60.79
9129;BME280;4599;50.906;6.786;2023-08-08T18:19:21;100060.06;;;17.92;61.40
9129;BME280;4599;50.906;6.786;2023-08-08T18:23:47;100061.53;;;17.79;63.50
9129;BME280;4599;50.906;6.786;2023-08-08T18:28:09;100059.59;;;17.65;64.06
9129;BME280;4599;50.906;6.786;2023-08-08T18:32:31;100044.38;;;17.78;63.51
9129;BME280;4599;50.906;6.786;2023-08-08T18:36:54;100052.16;;;17.62;64.79
9129;BME280;4599;50.906;6.786;2023-08-08T18:41:17;100053.78;;;17.63;65.68
9129;BME280;4599;50.906;6.786;2023-08-08T18:45:39;100013.06;;;17.15;66.52
9129;BME280;4599;50.906;6.786;2023-08-08T18:50:01;100065.25;;;17.52;65.51
9129;BME280;4599;50.906;6.786;2023-08-08T18:54:23;100065.03;;;17.29;67.70
9129;BME280;4599;50.906;6.786;2023-08-08T18:58:46;100075.91;;;17.33;66.50
9129;BME280;4599;50.906;6.786;2023-08-08T19:03:09;100058.09;;;17.38;66.41
9129;BME280;4599;50.906;6.786;2023-08-08T19:07:33;100073.00;;;17.28;68.17
9129;BME280;4599;50.906;6.786;2023-08-08T19:11:55;100056.78;;;17.18;67.31
9129;BME280;4599;50.906;6.786;2023-08-08T19:16:21;100070.63;;;17.01;68.69
9129;BME280;4599;50.906;6.786;2023-08-08T19:20:44;100076.13;;;16.89;69.79
9129;BME280;4599;50.906;6.786;2023-08-08T19:25:13;100067.59;;;16.63;72.04
9129;BME280;4599;50.906;6.786;2023-08-08T19:29:35;100074.59;;;16.45;73.82
9129;BME280;4599;50.906;6.786;2023-08-08T19:34:00;100072.88;;;16.28;75.12
9129;BME280;4599;50.906;6.786;2023-08-08T19:38:33;100080.25;;;16.15;75.31
9129;BME280;4599;50.906;6.786;2023-08-08T19:42:55;100070.81;;;16.06;76.07
9129;BME280;4599;50.906;6.786;2023-08-08T19:47:17;100077.75;;;16.05;76.27
9129;BME280;4599;50.906;6.786;2023-08-08T19:51:41;100071.34;;;15.91;79.44
9129;BME280;4599;50.906;6.786;2023-08-08T19:56:03;100067.84;;;15.75;81.14
9129;BME280;4599;50.906;6.786;2023-08-08T20:00:26;100060.84;;;15.67;81.86
9129;BME280;4599;50.906;6.786;2023-08-08T20:04:48;100055.53;;;15.69;81.94
9129;BME280;4599;50.906;6.786;2023-08-08T20:09:12;100064.38;;;15.66;82.19
9129;BME280;4599;50.906;6.786;2023-08-08T20:13:34;100051.09;;;15.61;82.65
9129;BME280;4599;50.906;6.786;2023-08-08T20:17:56;100050.16;;;15.62;83.61
9129;BME280;4599;50.906;6.786;2023-08-08T20:22:19;100052.06;;;15.60;82.94
9129;BME280;4599;50.906;6.786;2023-08-08T20:26:42;100043.34;;;15.61;84.56
9129;BME280;4599;50.906;6.786;2023-08-08T20:31:04;100046.44;;;15.65;83.69
9129;BME280;4599;50.906;6.786;2023-08-08T20:35:26;100046.38;;;15.57;84.13
9129;BME280;4599;50.906;6.786;2023-08-08T20:39:48;100055.47;;;15.61;84.51
9129;BME280;4599;50.906;6.786;2023-08-08T20:44:11;100058.66;;;15.45;85.11
9129;BME280;4599;50.906;6.786;2023-08-08T20:48:33;100058.66;;;15.45;84.76
9129;BME280;4599;50.906;6.786;2023-08-08T20:52:55;100064.81;;;15.44;85.40
9129;BME280;4599;50.906;6.786;2023-08-08T20:57:17;100052.69;;;15.44;86.05
9129;BME280;4599;50.906;6.786;2023-08-08T21:01:41;100042.66;;;15.41;85.84
9129;BME280;4599;50.906;6.786;2023-08-08T21:06:03;100030.78;;;15.31;86.73
9129;BME280;4599;50.906;6.786;2023-08-08T21:10:25;100030.66;;;15.32;87.14
9129;BME280;4599;50.906;6.786;2023-08-08T21:14:48;100007.03;;;15.27;86.72
9129;BME280;4599;50.906;6.786;2023-08-08T21:19:12;99996.88;;;15.26;86.50
9129;BME280;4599;50.906;6.786;2023-08-08T21:23:34;99999.28;;;15.10;87.47
9129;BME280;4599;50.906;6.786;2023-08-08T21:27:56;99999.97;;;15.12;87.29
9129;BME280;4599;50.906;6.786;2023-08-08T21:32:19;100005.25;;;15.28;87.45
9129;BME280;4599;50.906;6.786;2023-08-08T21:36:42;100009.31;;;15.30;87.71
9129;BME280;4599;50.906;6.786;2023-08-08T21:41:04;100004.16;;;15.30;87.26
9129;BME280;4599;50.906;6.786;2023-08-08T21:45:26;99985.22;;;15.22;87.17
9129;BME280;4599;50.906;6.786;2023-08-08T21:49:48;99984.47;;;15.12;87.45
9129;BME280;4599;50.906;6.786;2023-08-08T21:54:11;99993.81;;;15.13;88.87
9129;BME280;4599;50.906;6.786;2023-08-08T21:58:33;99981.81;;;15.21;87.51
9129;BME280;4599;50.906;6.786;2023-08-08T22:02:55;99970.38;;;15.06;88.56
9129;BME280;4599;50.906;6.786;2023-08-08T22:07:17;99960.13;;;15.14;88.23
9129;BME280;4599;50.906;6.786;2023-08-08T22:11:40;99951.88;;;15.11;88.56
9129;BME280;4599;50.906;6.786;2023-08-08T22:16:03;99955.78;;;15.15;88.22
9129;BME280;4599;50.906;6.786;2023-08-08T22:20:25;99953.22;;;15.15;87.75
9129;BME280;4599;50.906;6.786;2023-08-08T22:24:46;99959.72;;;15.01;88.27
9129;BME280;4599;50.906;6.786;2023-08-08T22:29:10;99950.47;;;15.16;88.21
9129;BME280;4599;50.906;6.786;2023-08-08T22:33:32;99937.66;;;15.07;88.24
9129;BME280;4599;50.906;6.786;2023-08-08T22:37:54;99934.84;;;15.18;88.03
9129;BME280;4599;50.906;6.786;2023-08-08T22:42:16;99922.75;;;15.18;87.07
9129;BME280;4599;50.906;6.786;2023-08-08T22:46:39;99922.84;;;15.09;88.28
9129;BME280;4599;50.906;6.786;2023-08-08T22:51:02;99909.25;;;15.07;88.74
9129;BME280;4599;50.906;6.786;2023-08-08T22:55:24;99916.88;;;15.08;88.97
9129;BME280;4599;50.906;6.786;2023-08-08T22:59:46;99905.81;;;15.16;88.60
9129;BME280;4599;50.906;6.786;2023-08-08T23:04:09;99904.16;;;15.15;88.42
9129;BME280;4599;50.906;6.786;2023-08-08T23:08:31;99902.09;;;15.18;88.19
9129;BME280;4599;50.906;6.786;2023-08-08T23:12:53;99898.56;;;15.19;87.96
9129;BME280;4599;50.906;6.786;2023-08-08T23:17:15;99903.06;;;15.17;88.72
9129;BME280;4599;50.906;6.786;2023-08-08T23:21:38;99914.25;;;15.26;88.14
9129;BME280;4599;50.906;6.786;2023-08-08T23:26:00;99911.50;;;15.27;88.62
9129;BME280;4599;50.906;6.786;2023-08-08T23:30:23;99910.69;;;15.27;88.69
9129;BME280;4599;50.906;6.786;2023-08-08T23:34:45;99899.53;;;15.18;88.47